Decoded Metar for GCLP (LAS PALMAS in SPAIN) (IATA:LPA) | Meteo·Mobile Aviation Weather
aviador You're here:

GCLP Decoded Metar

LAS PALMAS in SPAIN
Report Time2020-02-22 09:00:00
UTC Time2020-02-22 09:22:05
Flight Rules vfr VFR
Wind350° at 12 kt
W.Decomp.*RWY 03: 9.8 kt HW 6.9 kt LCW
Visibility9999 m
Phenomena:N/A
Clouds:Few 030 Hf
Expected CloudBase > 3,600 ft AGL from Temp-Dew spread
CeilingNone
Temp19°C (ISA +4)
Dew Point10°C (56% RH)
AAT14.7°C
QNH1018 hPa
Density Alt568 ft
Elevation82 ft
Report Wrong Elevation
Raw Report
GCLP 220900Z 35012KT 9999 FEW030 19/10 Q1018 NOSIG=

Extra information for GCLP:More info

Metar Taf Metar & Taf Last 4 Metars F.Rules Stats Wind Profile Meteogram Temp Stats Airport Information Weather charts Add Link Nearby VenuesMetar ALERT Operation Metar Decoded Social comments